Time;durP1;ratioP1;P1;durP2;ratioP2;P2;SDS_P1;SDS_P2;PMS_P1;PMS_P2;Temp;Humidity;BMP_temperature;BMP_pressure;BME280_temperature;BME280_humidity;BME280_pressure;Samples;Min_cycle;Max_cycle;Signal;HPM_P1;HPM_P2
2022/02/19 00:00:24;;;;;;;4.78;1.30;;;;;;;1.84;100.00;98634.13;4967293;28;20112;-58
2022/02/19 00:03:09;;;;;;;6.80;1.85;;;;;;;1.81;100.00;98667.22;4983727;28;20951;-56
2022/02/19 00:05:53;;;;;;;15.63;2.90;;;;;;;1.68;100.00;98631.56;4966306;28;20124;-58
2022/02/19 00:08:38;;;;;;;13.18;2.80;;;;;;;1.83;100.00;98653.31;4979913;28;20049;-64
2022/02/19 00:11:22;;;;;;;11.57;2.10;;;;;;;1.84;100.00;98656.75;4972856;28;20068;-59
2022/02/19 00:14:07;;;;;;;5.00;1.55;;;;;;;1.84;100.00;98669.81;4971875;28;20089;-58
2022/02/19 00:16:53;;;;;;;3.65;1.40;;;;;;;1.79;100.00;98666.38;4984945;28;20074;-58
2022/02/19 00:19:38;;;;;;;4.88;1.75;;;;;;;1.98;100.00;98678.50;4985022;28;20057;-58
2022/02/19 00:22:22;;;;;;;3.63;1.27;;;;;;;1.87;100.00;98659.38;4987005;28;20372;-61
2022/02/19 00:25:08;;;;;;;5.22;1.23;;;;;;;1.86;100.00;98662.88;4988997;28;20126;-59
2022/02/19 00:27:53;;;;;;;4.65;1.60;;;;;;;2.03;100.00;98679.34;4959169;28;20065;-63
2022/02/19 00:30:39;;;;;;;4.18;1.40;;;;;;;1.86;100.00;98658.50;4944043;28;20049;-55
2022/02/19 00:33:24;;;;;;;6.75;1.90;;;;;;;1.57;100.00;98631.59;4975771;28;20061;-55
2022/02/19 00:36:10;;;;;;;14.60;2.50;;;;;;;1.85;100.00;98684.63;4983089;28;20096;-58
2022/02/19 00:38:55;;;;;;;16.33;3.17;;;;;;;2.10;100.00;98686.31;4979444;28;20123;-57
2022/02/19 00:41:39;;;;;;;15.45;3.40;;;;;;;2.25;100.00;98675.78;4985557;28;20080;-57
2022/02/19 00:44:24;;;;;;;12.07;2.40;;;;;;;2.17;100.00;98675.78;4972598;28;20109;-60
2022/02/19 00:47:08;;;;;;;;;;;;;;;2.02;100.00;98654.94;4984407;28;20049;-62
2022/02/19 00:49:54;;;;;;;15.67;2.30;;;;;;;2.06;100.00;98682.81;4980226;28;20321;-56
2022/02/19 00:52:39;;;;;;;12.77;2.80;;;;;;;2.00;100.00;98690.69;4961329;28;20057;-60
2022/02/19 00:55:25;;;;;;;13.05;1.98;;;;;;;1.97;100.00;98684.63;4978077;28;20100;-56
2022/02/19 00:58:09;;;;;;;;;;;;;;;2.03;100.00;98682.84;4977991;28;20057;-56
2022/02/19 01:00:54;;;;;;;15.17;2.00;;;;;;;1.81;100.00;98647.19;4962625;28;19968;-57
2022/02/19 01:03:47;;;;;;;10.73;2.53;;;;;;;1.98;100.00;98639.31;4961586;28;20056;-59
2022/02/19 01:06:32;;;;;;;10.93;2.40;;;;;;;2.22;100.00;98662.72;4960252;28;20104;-62
2022/02/19 01:09:17;;;;;;;10.85;2.05;;;;;;;2.38;100.00;98670.44;4983486;28;20058;-60
2022/02/19 01:12:03;;;;;;;12.57;2.28;;;;;;;2.30;100.00;98674.00;4964398;28;20052;-58
2022/02/19 01:14:48;;;;;;;11.05;2.13;;;;;;;2.32;100.00;98664.38;4963815;28;20053;-58
2022/02/19 01:17:33;;;;;;;14.65;2.50;;;;;;;2.30;100.00;98663.53;4976208;28;20050;-58
2022/02/19 01:20:18;;;;;;;9.35;2.00;;;;;;;2.47;100.00;98661.69;4977201;28;20118;-64
2022/02/19 01:23:02;;;;;;;4.07;1.00;;;;;;;2.24;100.00;98612.16;4981324;28;20479;-62
2022/02/19 01:25:47;;;;;;;2.28;0.98;;;;;;;2.59;100.00;98659.00;4974794;28;20177;-54
2022/02/19 01:28:34;;;;;;;6.93;1.42;;;;;;;2.48;100.00;98650.34;4979394;28;20112;-56
2022/02/19 01:31:19;;;;;;;5.00;1.00;;;;;;;2.37;100.00;98645.19;4978378;28;20058;-57
2022/02/19 01:34:05;;;;;;;4.40;1.10;;;;;;;2.29;100.00;98646.97;4977775;28;20057;-56
2022/02/19 01:36:55;;;;;;;2.83;1.00;;;;;;;2.34;100.00;98644.34;4973135;28;20130;-60
2022/02/19 01:39:41;;;;;;;2.60;1.00;;;;;;;2.31;100.00;98628.66;4993519;28;20057;-60
2022/02/19 01:42:27;;;;;;;2.67;0.95;;;;;;;2.41;100.00;98625.13;4978916;28;20049;-56
2022/02/19 01:45:14;;;;;;;3.33;0.90;;;;;;;2.62;100.00;98631.09;4983779;28;20077;-61
2022/02/19 01:47:59;;;;;;;2.15;1.10;;;;;;;2.46;100.00;98633.81;4966229;28;20073;-57
2022/02/19 01:50:44;;;;;;;3.80;1.20;;;;;;;2.39;100.00;98625.13;4974620;28;20045;-54
2022/02/19 01:53:31;;;;;;;4.28;1.13;;;;;;;2.47;100.00;98623.34;4988967;28;20111;-64
2022/02/19 01:56:22;;;;;;;3.60;0.98;;;;;;;2.48;100.00;98621.56;4977804;28;20432;-60
2022/02/19 01:59:23;;;;;;;1.80;1.00;;;;;;;2.26;100.00;98620.84;4958646;28;20105;-58
2022/02/19 02:02:23;;;;;;;5.28;1.02;;;;;;;2.10;100.00;98597.41;4959330;28;20224;-58
2022/02/19 02:05:34;;;;;;;5.40;2.08;;;;;;;2.31;100.00;98624.31;4969581;28;20110;-62
2022/02/19 02:08:22;;;;;;;5.88;1.40;;;;;;;2.39;100.00;98624.25;4958032;28;20056;-62
2022/02/19 02:11:08;;;;;;;14.65;2.08;;;;;;;2.09;100.00;98632.28;4980205;28;20797;-61
2022/02/19 02:14:07;;;;;;;11.30;2.47;;;;;;;2.15;100.00;98632.25;4978223;28;20057;-60
2022/02/19 02:17:04;;;;;;;12.07;2.28;;;;;;;2.06;100.00;98629.69;4961244;28;20054;-61
2022/02/19 02:19:49;;;;;;;14.95;2.15;;;;;;;1.98;100.00;98631.47;4969340;28;20077;-59
2022/02/19 02:22:37;;;;;;;17.45;2.75;;;;;;;1.69;100.00;98597.59;4975652;28;20143;-58
2022/02/19 02:25:33;;;;;;;6.75;1.40;;;;;;;1.96;100.00;98638.41;4983786;28;20049;-58
2022/02/19 02:28:20;;;;;;;9.25;2.20;;;;;;;1.82;100.00;98629.78;4962784;28;20174;-60
2022/02/19 02:31:05;;;;;;;13.27;2.28;;;;;;;1.81;100.00;98628.03;4970473;28;20142;-59
2022/02/19 02:33:53;;;;;;;7.50;2.08;;;;;;;1.72;100.00;98642.00;4988036;28;20069;-58
2022/02/19 02:36:38;;;;;;;7.90;2.00;;;;;;;1.67;100.00;98635.06;4983410;28;20132;-59
2022/02/19 02:39:23;;;;;;;7.75;1.50;;;;;;;1.63;100.00;98642.03;4978643;28;20457;-59
2022/02/19 02:42:07;;;;;;;4.88;1.60;;;;;;;1.36;100.00;98600.34;4994710;28;20702;-57
2022/02/19 02:44:52;;;;;;;9.43;1.90;;;;;;;1.70;100.00;98627.22;4981999;28;20101;-56
2022/02/19 02:47:41;;;;;;;6.63;2.10;;;;;;;1.41;100.00;98579.41;4978384;28;20117;-59
2022/02/19 02:50:26;;;;;;;7.40;1.90;;;;;;;1.62;100.00;98598.50;4990502;28;20060;-56
2022/02/19 02:53:11;;;;;;;;;;;;;;;1.95;100.00;98631.47;4991483;28;20419;-63
2022/02/19 02:55:59;;;;;;;13.27;2.20;;;;;;;1.66;100.00;98592.38;5001313;28;20040;-63
2022/02/19 02:58:44;;;;;;;9.82;2.75;;;;;;;1.78;100.00;98623.69;4952911;28;20113;-61
2022/02/19 03:01:30;;;;;;;8.88;2.40;;;;;;;1.59;100.00;98577.63;4955011;28;20074;-60
2022/02/19 03:04:18;;;;;;;5.40;1.90;;;;;;;1.79;100.00;98628.06;4985817;28;20070;-58
2022/02/19 03:07:04;;;;;;;4.40;1.98;;;;;;;1.67;100.00;98627.22;4968961;28;20074;-56
2022/02/19 03:09:48;;;;;;;;;;;;;;;1.75;100.00;98618.50;4976648;28;20048;-59
2022/02/19 03:12:34;;;;;;;5.45;2.70;;;;;;;1.59;100.00;98597.66;4976683;28;19961;-61
2022/02/19 03:15:21;;;;;;;9.20;2.63;;;;;;;1.83;100.00;98640.25;4952885;28;20049;-58
2022/02/19 03:18:09;;;;;;;5.82;2.33;;;;;;;1.67;100.00;98627.22;4961541;28;20092;-58
2022/02/19 03:20:55;;;;;;;6.68;3.22;;;;;;;1.76;100.00;98635.91;4979448;28;20105;-57
2022/02/19 03:23:41;;;;;;;7.45;2.85;;;;;;;1.77;100.00;98635.00;4980491;28;20100;-61
2022/02/19 03:26:29;;;;;;;6.25;2.42;;;;;;;1.61;100.00;98622.00;4961865;28;20166;-63
2022/02/19 03:29:20;;;;;;;11.27;2.45;;;;;;;1.67;100.00;98604.59;4951691;28;20069;-57
2022/02/19 03:32:08;;;;;;;10.20;2.58;;;;;;;1.63;100.00;98596.75;4936365;28;20054;-62
2022/02/19 03:34:53;;;;;;;6.40;2.15;;;;;;;1.74;100.00;98610.66;4950179;28;20053;-59
2022/02/19 03:37:39;;;;;;;7.97;2.33;;;;;;;1.57;100.00;98581.97;4937572;28;20046;-58
2022/02/19 03:40:33;;;;;;;4.28;1.92;;;;;;;1.86;100.00;98637.59;4916021;29;20066;-64
2022/02/19 03:43:18;;;;;;;6.45;1.80;;;;;;;1.78;100.00;98628.06;4947087;28;20057;-63
2022/02/19 03:46:03;;;;;;;4.22;2.28;;;;;;;1.58;100.00;98591.53;4946403;29;20098;-64
2022/02/19 03:49:20;;;;;;;4.75;2.40;;;;;;;1.81;100.00;98644.59;4874692;29;20191;-65
2022/02/19 03:52:05;;;;;;;3.92;2.10;;;;;;;1.93;100.00;98644.53;4892013;29;20092;-67
2022/02/19 03:54:52;;;;;;;5.43;2.45;;;;;;;1.76;100.00;98627.19;4869127;29;20116;-64
2022/02/19 03:57:37;;;;;;;5.50;2.20;;;;;;;1.80;100.00;98601.03;4893261;29;20145;-63
2022/02/19 04:00:23;;;;;;;8.18;1.92;;;;;;;2.17;100.00;98651.41;4892353;29;20084;-63
2022/02/19 04:03:09;;;;;;;5.30;2.47;;;;;;;2.14;100.00;98656.66;4897066;29;20184;-65
2022/02/19 04:05:56;;;;;;;5.60;2.65;;;;;;;2.29;100.00;98648.75;4893840;29;20472;-66
2022/02/19 04:08:40;;;;;;;9.13;2.75;;;;;;;2.29;100.00;98648.75;4899893;29;20437;-63
2022/02/19 04:11:26;;;;;;;6.05;2.25;;;;;;;2.22;100.00;98626.09;4884826;29;20068;-65
2022/02/19 04:14:12;;;;;;;8.57;2.67;;;;;;;2.16;100.00;98600.88;4884898;29;20563;-72
2022/02/19 04:17:04;;;;;;;6.75;2.60;;;;;;;2.42;100.00;98638.16;4882363;29;20115;-64
2022/02/19 04:19:52;;;;;;;5.85;2.13;;;;;;;2.02;100.00;98607.03;4878030;29;20083;-65
2022/02/19 04:22:41;;;;;;;4.75;2.22;;;;;;;2.34;100.00;98639.97;4884459;29;20076;-63
2022/02/19 04:25:27;;;;;;;5.40;2.13;;;;;;;2.24;100.00;98624.34;4944236;28;20542;-64
2022/02/19 04:28:16;;;;;;;6.00;2.22;;;;;;;2.28;100.00;98624.31;4953315;28;20803;-64
2022/02/19 04:31:00;;;;;;;3.53;1.92;;;;;;;2.15;100.00;98579.94;4938625;28;20217;-66
2022/02/19 04:33:45;;;;;;;5.68;2.30;;;;;;;2.43;100.00;98626.84;4920090;29;20062;-72
2022/02/19 04:36:31;;;;;;;4.35;2.28;;;;;;;2.21;100.00;98590.38;4951994;28;20134;-66
2022/02/19 04:39:18;;;;;;;4.65;2.03;;;;;;;2.42;100.00;98624.25;4954333;28;20058;-64
2022/02/19 04:42:03;;;;;;;5.60;2.22;;;;;;;2.42;100.00;98609.41;4952454;28;20141;-63
2022/02/19 04:44:47;;;;;;;3.22;1.83;;;;;;;2.55;100.00;98620.66;4948442;28;20058;-61
2022/02/19 04:47:34;;;;;;;3.95;2.17;;;;;;;2.50;100.00;98623.28;4908871;28;20282;-64
2022/02/19 04:50:21;;;;;;;3.97;2.08;;;;;;;2.40;100.00;98621.63;4933760;28;20062;-62
2022/02/19 04:53:10;;;;;;;4.05;2.13;;;;;;;2.38;100.00;98601.59;4933671;28;20531;-63
2022/02/19 04:55:56;;;;;;;4.90;2.78;;;;;;;2.07;100.00;98553.00;4951074;28;20053;-63
2022/02/19 04:58:43;;;;;;;6.32;2.63;;;;;;;2.39;100.00;98598.97;4952024;28;20061;-67
2022/02/19 05:01:30;;;;;;;7.15;2.92;;;;;;;2.29;100.00;98572.91;4948848;29;20423;-65
2022/02/19 05:04:47;;;;;;;6.60;4.55;;;;;;;2.32;100.00;98606.84;4925014;29;20058;-69
2022/02/19 05:07:44;;;;;;;4.97;3.63;;;;;;;2.20;100.00;98567.72;4913168;29;20142;-65
2022/02/19 05:10:29;;;;;;;7.10;3.72;;;;;;;1.99;100.00;98580.91;4912873;29;20050;-65
2022/02/19 05:13:16;;;;;;;5.50;3.42;;;;;;;1.93;100.00;98580.97;4882440;29;20138;-66
2022/02/19 05:16:04;;;;;;;4.43;2.67;;;;;;;2.12;100.00;98611.34;4927655;29;20083;-68
2022/02/19 05:18:56;;;;;;;5.95;3.67;;;;;;;2.07;100.00;98594.81;4886329;29;20544;-65
2022/02/19 05:21:44;;;;;;;4.93;3.28;;;;;;;1.95;100.00;98627.13;4851414;29;20076;-64
2022/02/19 05:24:32;;;;;;;6.80;2.60;;;;;;;1.43;100.00;98564.63;4899754;29;20113;-65
2022/02/19 05:27:26;;;;;;;5.35;3.17;;;;;;;1.80;100.00;98616.72;4909303;29;20432;-66
2022/02/19 05:30:14;;;;;;;7.53;3.70;;;;;;;1.78;100.00;98623.69;4913860;29;20075;-64
2022/02/19 05:33:19;;;;;;;5.82;2.67;;;;;;;1.80;100.00;98605.38;4902710;29;20059;-65
2022/02/19 05:36:06;;;;;;;4.18;2.65;;;;;;;1.85;100.00;98627.13;4908359;29;20054;-63
2022/02/19 05:38:55;;;;;;;6.22;2.33;;;;;;;1.90;100.00;98630.63;4913713;28;20169;-63
2022/02/19 05:41:42;;;;;;;4.07;2.95;;;;;;;1.82;100.00;98635.00;4941057;28;20614;-68
2022/02/19 05:44:33;;;;;;;7.72;3.45;;;;;;;1.75;100.00;98623.72;4923017;29;20050;-63
2022/02/19 05:47:23;;;;;;;8.48;3.28;;;;;;;1.91;100.00;98622.78;4926934;29;20105;-65
2022/02/19 05:50:47;;;;;;;13.18;4.05;;;;;;;1.87;100.00;98628.00;4912180;29;20087;-70
2022/02/19 05:53:50;;;;;;;7.18;2.85;;;;;;;1.91;100.00;98627.13;4923789;29;20528;-65
2022/02/19 05:56:35;;;;;;;5.65;2.55;;;;;;;1.91;100.00;98635.84;4903248;29;20528;-64
2022/02/19 05:59:20;;;;;;;8.38;2.63;;;;;;;1.87;100.00;98625.41;4911524;29;20090;-71
2022/02/19 06:02:05;;;;;;;7.68;4.38;;;;;;;1.86;100.00;98598.38;4903894;29;20485;-66
2022/02/19 06:04:50;;;;;;;12.00;4.10;;;;;;;2.05;100.00;98623.56;4927876;29;20389;-68
2022/02/19 06:07:35;;;;;;;;;;;;;;;2.02;100.00;98620.13;4921754;29;20446;-66
2022/02/19 06:10:19;;;;;;;5.53;2.33;;;;;;;2.04;100.00;98634.03;4923457;28;19929;-66
2022/02/19 06:13:05;;;;;;;7.50;2.58;;;;;;;2.05;100.00;98618.34;4919461;29;20062;-65
2022/02/19 06:15:58;;;;;;;4.78;2.13;;;;;;;2.09;100.00;98612.22;4900108;29;20452;-66
2022/02/19 06:19:03;;;;;;;8.82;2.58;;;;;;;2.05;100.00;98617.50;4909858;29;20058;-64
2022/02/19 06:21:47;;;;;;;10.40;3.25;;;;;;;2.14;100.00;98609.59;4925812;29;20587;-69
2022/02/19 06:24:33;;;;;;;7.90;3.83;;;;;;;2.22;100.00;98611.28;4933145;28;20109;-65
2022/02/19 06:27:20;;;;;;;7.43;3.30;;;;;;;1.91;100.00;98573.13;4953084;28;20054;-66
2022/02/19 06:30:16;;;;;;;12.35;3.70;;;;;;;2.24;100.00;98608.66;4990319;28;20073;-70
2022/02/19 06:33:10;;;;;;;8.82;3.20;;;;;;;2.26;100.00;98614.75;4953721;28;20093;-63
2022/02/19 06:35:56;;;;;;;6.68;3.00;;;;;;;2.31;100.00;98603.41;4977424;28;20049;-67
2022/02/19 06:38:44;;;;;;;7.95;3.05;;;;;;;2.39;100.00;98604.22;4974337;28;20134;-61
2022/02/19 06:41:29;;;;;;;6.72;2.35;;;;;;;2.41;100.00;98607.66;4981609;28;20081;-58
2022/02/19 06:44:29;;;;;;;10.45;3.22;;;;;;;2.50;100.00;98614.59;4968477;28;20100;-59
2022/02/19 06:47:15;;;;;;;8.50;2.92;;;;;;;2.44;100.00;98586.72;4962364;28;20191;-60
2022/02/19 06:50:00;;;;;;;6.50;2.50;;;;;;;2.58;100.00;98615.41;4979923;28;20538;-59
2022/02/19 06:52:47;;;;;;;7.97;2.45;;;;;;;2.67;100.00;98605.75;4969182;28;20087;-65
2022/02/19 06:55:34;;;;;;;14.20;2.63;;;;;;;2.66;100.00;98611.88;4967895;28;20124;-59
2022/02/19 06:58:21;;;;;;;9.88;2.83;;;;;;;2.48;100.00;98577.09;4979108;28;20108;-57
2022/02/19 07:01:15;;;;;;;7.63;1.95;;;;;;;2.75;100.00;98613.53;4974245;28;20093;-59
2022/02/19 07:04:00;;;;;;;5.75;2.30;;;;;;;2.79;100.00;98603.03;4971506;28;20102;-59
2022/02/19 07:07:13;;;;;;;9.95;2.72;;;;;;;3.00;100.00;98594.13;4930484;29;20058;-63
2022/02/19 07:09:59;;;;;;;8.25;2.97;;;;;;;3.03;100.00;98597.59;4943284;28;20163;-59
2022/02/19 07:12:44;;;;;;;;;;;;;;;3.06;100.00;98620.25;4920472;29;20078;-61
2022/02/19 07:15:29;;;;;;;6.60;2.70;;;;;;;2.99;100.00;98593.28;4920476;29;19925;-61
2022/02/19 07:18:34;;;;;;;5.57;2.22;;;;;;;3.15;100.00;98588.75;4918483;29;20085;-61
2022/02/19 07:21:26;;;;;;;7.63;2.80;;;;;;;2.82;100.00;98542.84;4913124;28;20097;-60
2022/02/19 07:24:12;;;;;;;5.87;3.03;;;;;;;2.97;100.00;98594.16;4918325;29;20932;-61
2022/02/19 07:26:59;;;;;;;5.63;3.17;;;;;;;2.99;100.00;98592.38;4930230;29;20423;-67
2022/02/19 07:29:47;;;;;;;4.07;2.72;;;;;;;3.10;100.00;98590.53;4931272;29;20130;-60
2022/02/19 07:32:31;;;;;;;7.07;2.33;;;;;;;3.10;100.00;98599.28;4929839;29;20182;-58
2022/02/19 07:35:21;;;;;;;10.23;2.67;;;;;;;3.11;100.00;98556.50;4918986;29;20054;-60
2022/02/19 07:38:07;;;;;;;;;;;;;;;3.33;100.00;98565.00;4914576;29;20081;-56
2022/02/19 07:40:51;;;;;;;7.90;2.50;;;;;;;3.30;100.00;98565.91;4918335;28;19957;-62
2022/02/19 07:43:42;;;;;;;3.33;2.33;;;;;;;3.34;100.00;98562.38;4946094;28;20144;-58
2022/02/19 07:46:55;;;;;;;8.35;2.20;;;;;;;3.42;100.00;98546.56;4914030;29;20082;-59
2022/02/19 07:59:38;;;;;;;2.50;1.50;;;;;;;3.66;100.00;98541.03;4886397;29;20468;-56
2022/02/19 08:02:23;;;;;;;3.20;1.75;;;;;;;3.49;100.00;98485.34;4884947;29;20063;-61
2022/02/19 08:05:08;;;;;;;;;;;;;;;3.97;100.00;98509.16;4888342;29;20067;-59
2022/02/19 08:08:00;;;;;;;3.97;2.08;;;;;;;4.13;100.00;98499.31;4874878;29;19926;-63
2022/02/19 08:10:46;;;;;;;2.97;2.10;;;;;;;4.20;100.00;98512.28;4889218;29;20516;-62
2022/02/19 08:13:31;;;;;;;2.42;1.70;;;;;;;4.39;100.00;98497.13;4887505;29;20135;-61
2022/02/19 08:16:16;;;;;;;4.18;2.13;;;;;;;4.25;100.00;98499.13;4871423;29;20142;-62
2022/02/19 08:19:00;;;;;;;5.93;2.25;;;;;;;4.30;100.00;98495.53;4887610;29;20148;-61
2022/02/19 08:21:45;;;;;;;4.82;2.30;;;;;;;4.45;100.00;98486.53;4885273;29;20549;-58
2022/02/19 08:24:29;;;;;;;3.53;1.90;;;;;;;4.21;100.00;98434.47;4922173;29;20107;-58
2022/02/19 08:27:14;;;;;;;4.50;1.80;;;;;;;4.57;100.00;98473.22;4963004;28;20158;-66
2022/02/19 08:29:58;;;;;;;5.35;1.65;;;;;;;5.04;100.00;98481.13;4972432;28;20116;-60
2022/02/19 08:32:43;;;;;;;2.97;1.80;;;;;;;4.86;100.00;98460.44;4972604;28;20054;-56
2022/02/19 08:35:27;;;;;;;5.05;1.60;;;;;;;5.03;100.00;98473.28;4960897;28;20184;-65
2022/02/19 08:38:12;;;;;;;3.72;1.40;;;;;;;4.82;100.00;98453.50;4979174;28;20557;-59
2022/02/19 08:40:57;;;;;;;3.30;1.35;;;;;;;4.76;100.00;98459.72;4971603;28;20101;-57
2022/02/19 08:43:41;;;;;;;2.45;1.60;;;;;;;5.12;100.00;98442.44;4976424;28;20082;-62
2022/02/19 08:46:26;;;;;;;3.92;1.50;;;;;;;5.00;100.00;98400.66;4978406;28;20860;-57
2022/02/19 08:49:11;;;;;;;;;;;;;;;5.14;100.00;98432.75;4968273;28;20057;-62
2022/02/19 08:51:55;;;;;;;3.22;1.20;;;;;;;5.00;100.00;98413.78;4973199;28;20381;-59
2022/02/19 08:54:42;;;;;;;1.58;1.00;;;;;;;5.07;100.00;98415.41;4981108;28;20068;-64
2022/02/19 08:57:27;;;;;;;3.90;1.30;;;;;;;5.29;100.00;98406.16;4983099;28;20073;-59
2022/02/19 09:00:13;;;;;;;2.38;1.25;;;;;;;5.47;100.00;98381.25;4977118;28;20049;-63
2022/02/19 09:02:59;;;;;;;2.70;1.33;;;;;;;5.85;100.00;98415.50;4977282;28;20173;-63
2022/02/19 09:05:46;;;;;;;2.10;1.10;;;;;;;5.54;100.00;98399.47;4959754;28;20167;-63
2022/02/19 09:08:30;;;;;;;4.90;1.65;;;;;;;5.60;100.00;98387.97;4987656;28;20376;-59
2022/02/19 09:11:15;;;;;;;2.40;1.38;;;;;;;5.43;100.00;98385.72;4996902;28;20084;-56
2022/02/19 09:13:59;;;;;;;2.80;1.30;;;;;;;5.42;100.00;98404.16;4969613;28;20097;-69
2022/02/19 09:16:44;;;;;;;2.92;1.70;;;;;;;5.45;100.00;98362.91;4988292;28;20610;-66
2022/02/19 09:19:28;;;;;;;3.63;1.73;;;;;;;5.24;100.00;98347.59;4976825;28;20073;-57
2022/02/19 09:22:13;;;;;;;3.00;1.40;;;;;;;5.22;100.00;98357.28;4977522;28;20642;-59
2022/02/19 09:24:57;;;;;;;3.88;1.40;;;;;;;5.36;100.00;98338.56;4978243;28;20192;-59
2022/02/19 09:27:44;;;;;;;2.72;1.30;;;;;;;5.39;100.00;98338.53;4978129;28;20080;-56
2022/02/19 09:30:30;;;;;;;3.67;1.48;;;;;;;5.34;100.00;98319.38;4976381;28;20096;-59
2022/02/19 09:33:14;;;;;;;6.07;1.40;;;;;;;5.50;100.00;98321.59;4975395;28;20044;-62
2022/02/19 09:35:59;;;;;;;4.85;1.50;;;;;;;5.32;100.00;98308.00;4974946;28;20148;-59
2022/02/19 09:38:43;;;;;;;2.65;1.20;;;;;;;5.25;100.00;98320.44;4972395;28;20057;-59
2022/02/19 09:41:30;;;;;;;2.20;1.10;;;;;;;5.26;100.00;98316.06;4976154;28;20137;-60
2022/02/19 09:44:15;;;;;;;3.17;1.23;;;;;;;5.32;100.00;98302.75;4951870;28;20871;-74
2022/02/19 09:47:01;;;;;;;3.88;1.30;;;;;;;5.33;100.00;98307.13;4975455;28;20859;-67
2022/02/19 09:49:48;;;;;;;2.55;1.20;;;;;;;5.17;100.00;98298.72;4972456;28;20161;-64
2022/02/19 09:52:36;;;;;;;2.33;1.02;;;;;;;5.39;100.00;98299.09;4972099;28;20057;-61
2022/02/19 09:55:22;;;;;;;;;;;;;;;5.25;100.00;98302.03;4949206;28;20495;-62
2022/02/19 09:58:07;;;;;;;1.38;0.77;;;;;;;4.89;100.00;98279.19;4977814;28;20024;-64
2022/02/19 10:00:53;;;;;;;2.70;0.95;;;;;;;4.90;100.00;98296.69;4976007;28;20466;-60
2022/02/19 10:03:37;;;;;;;4.53;1.20;;;;;;;4.78;100.00;98307.44;4975956;28;20101;-57
2022/02/19 10:06:28;;;;;;;2.97;0.93;;;;;;;4.70;100.00;98320.72;4974830;28;20049;-65
2022/02/19 10:09:19;;;;;;;3.20;1.00;;;;;;;4.74;100.00;98295.28;4972627;28;20104;-60
2022/02/19 10:12:12;;;;;;;2.72;0.95;;;;;;;4.81;100.00;98281.13;4977319;28;20058;-60
2022/02/19 10:14:57;;;;;;;1.33;0.98;;;;;;;4.81;100.00;98262.75;4972846;28;20069;-59
2022/02/19 10:17:41;;;;;;;2.35;0.82;;;;;;;4.68;100.00;98235.03;4971735;28;20102;-61
2022/02/19 10:20:29;;;;;;;2.40;0.90;;;;;;;4.77;100.00;98276.84;4977442;28;20534;-58
2022/02/19 10:23:14;;;;;;;3.58;1.30;;;;;;;4.82;100.00;98251.34;4973311;28;20634;-59
2022/02/19 10:26:02;;;;;;;2.88;1.10;;;;;;;4.87;100.00;98270.50;4977346;28;20061;-58
2022/02/19 10:29:16;;;;;;;1.77;0.90;;;;;;;4.81;100.00;98257.50;4974125;28;20530;-64
2022/02/19 10:32:01;;;;;;;3.67;1.30;;;;;;;4.53;100.00;98235.34;4892018;29;20058;-63
2022/02/19 10:35:05;;;;;;;2.17;1.30;;;;;;;4.64;100.00;98260.47;4896463;29;20056;-65
2022/02/19 10:37:51;;;;;;;3.63;0.82;;;;;;;4.46;100.00;98265.22;4892025;29;20055;-60
2022/02/19 10:40:38;;;;;;;2.03;0.80;;;;;;;4.37;100.00;98270.66;4876431;29;20086;-65
2022/02/19 10:43:31;;;;;;;2.17;0.98;;;;;;;4.07;100.00;98206.56;4890253;29;20058;-67
2022/02/19 10:46:35;;;;;;;3.25;0.90;;;;;;;4.36;100.00;98240.94;4889396;29;20076;-60
2022/02/19 10:49:24;;;;;;;3.55;1.00;;;;;;;4.28;100.00;98240.22;4871466;29;20214;-59
2022/02/19 10:52:12;;;;;;;3.47;1.30;;;;;;;4.00;100.00;98190.97;4902988;29;20048;-60
2022/02/19 10:55:09;;;;;;;3.38;1.23;;;;;;;4.30;100.00;98204.34;4904524;29;20615;-63
2022/02/19 10:57:59;;;;;;;3.90;1.20;;;;;;;4.21;100.00;98215.03;4881231;29;20051;-63
2022/02/19 11:00:47;;;;;;;4.95;1.70;;;;;;;4.28;100.00;98207.91;4886891;29;20091;-61
2022/02/19 11:03:32;;;;;;;2.58;1.50;;;;;;;4.31;100.00;98192.94;4902437;29;20054;-62
2022/02/19 11:06:18;;;;;;;5.00;1.52;;;;;;;4.23;100.00;98207.09;4900619;29;20092;-58
2022/02/19 11:09:05;;;;;;;3.67;1.60;;;;;;;4.26;100.00;98189.56;4966988;28;20089;-55
2022/02/19 11:11:52;;;;;;;4.95;2.00;;;;;;;4.33;100.00;98177.19;4981858;28;20152;-69
2022/02/19 11:14:40;;;;;;;4.50;1.92;;;;;;;4.37;100.00;98177.09;4978180;28;20058;-71
2022/02/19 11:17:28;;;;;;;4.05;1.92;;;;;;;4.13;100.00;98168.84;4979981;28;20053;-57
2022/02/19 11:20:13;;;;;;;6.22;2.20;;;;;;;4.10;100.00;98153.19;4974550;28;20097;-58
2022/02/19 11:22:59;;;;;;;3.42;1.63;;;;;;;4.26;100.00;98146.72;4949272;28;20073;-60
2022/02/19 11:25:45;;;;;;;5.20;2.00;;;;;;;4.12;100.00;98133.03;4980276;28;20348;-61
2022/02/19 11:28:35;;;;;;;4.32;2.20;;;;;;;4.08;100.00;98124.34;4978995;28;20061;-58
2022/02/19 11:31:22;;;;;;;6.20;2.58;;;;;;;4.25;100.00;98124.03;4949519;28;20113;-61
2022/02/19 11:34:09;;;;;;;8.77;4.45;;;;;;;3.92;100.00;98103.75;4938990;28;20113;-59
2022/02/19 11:37:12;;;;;;;16.25;7.07;;;;;;;4.01;100.00;98095.69;4977596;28;20490;-62
2022/02/19 11:40:04;;;;;;;7.60;3.45;;;;;;;3.84;100.00;98096.03;4966114;28;20119;-59
2022/02/19 11:42:51;;;;;;;8.10;3.53;;;;;;;4.04;100.00;98077.28;4977614;28;20065;-59
2022/02/19 11:45:39;;;;;;;7.50;3.30;;;;;;;4.04;100.00;98067.63;4976497;28;20108;-62
2022/02/19 11:48:27;;;;;;;6.88;3.55;;;;;;;4.00;100.00;98073.84;4951999;28;20121;-63
2022/02/19 11:51:21;;;;;;;6.82;3.25;;;;;;;4.03;100.00;98046.69;4956063;28;20053;-61
2022/02/19 11:54:06;;;;;;;5.70;2.85;;;;;;;4.13;100.00;98045.59;4980466;28;20373;-66
2022/02/19 11:56:51;;;;;;;5.68;2.55;;;;;;;4.12;100.00;98041.25;4976668;28;20053;-60
2022/02/19 11:59:44;;;;;;;6.13;2.50;;;;;;;4.03;100.00;98034.44;4983381;28;20227;-62
2022/02/19 12:02:29;;;;;;;5.38;2.60;;;;;;;3.93;100.00;98022.47;4981336;28;20418;-59
2022/02/19 12:05:26;;;;;;;4.22;2.75;;;;;;;3.84;100.00;97991.19;4968972;28;20154;-60
2022/02/19 12:08:11;;;;;;;5.85;3.30;;;;;;;4.06;100.00;97995.06;4964688;28;20537;-66
2022/02/19 12:11:07;;;;;;;;;;;;;;;3.92;100.00;98001.50;4981012;28;20562;-59
2022/02/19 12:13:57;;;;;;;6.63;3.33;;;;;;;3.78;100.00;97983.47;4961940;28;20009;-56
2022/02/19 12:16:43;;;;;;;7.05;3.63;;;;;;;3.90;100.00;97985.81;4974793;28;20089;-64
2022/02/19 12:19:51;;;;;;;8.43;3.38;;;;;;;3.92;100.00;97997.13;4961123;28;20600;-57
2022/02/19 12:22:38;;;;;;;6.38;3.70;;;;;;;3.70;100.00;97930.34;4973946;28;20046;-59
2022/02/19 12:25:23;;;;;;;5.25;3.10;;;;;;;3.87;100.00;97969.28;4978229;28;20089;-59
2022/02/19 12:28:18;;;;;;;5.57;3.13;;;;;;;3.91;100.00;97971.81;4979145;28;20077;-57
2022/02/19 12:31:20;;;;;;;4.43;2.92;;;;;;;3.84;100.00;97969.38;4976862;28;20057;-62
2022/02/19 12:34:10;;;;;;;4.45;2.53;;;;;;;3.55;100.00;97961.25;4967639;28;20141;-59
2022/02/19 12:36:59;;;;;;;4.95;2.88;;;;;;;3.48;100.00;97957.06;4969420;28;20557;-62
2022/02/19 12:39:48;;;;;;;8.25;3.55;;;;;;;3.39;100.00;97939.78;4982345;28;20470;-63
2022/02/19 12:42:34;;;;;;;6.07;3.03;;;;;;;3.33;100.00;97937.25;4967386;28;20108;-60
2022/02/19 12:45:19;;;;;;;;;;;;;;;3.35;100.00;97942.47;4969873;28;20060;-62
2022/02/19 12:48:03;;;;;;;8.20;3.30;;;;;;;3.22;100.00;97917.44;4978499;28;20020;-63
2022/02/19 12:50:52;;;;;;;;;;;;;;;3.33;100.00;97924.16;4972999;28;20053;-58
2022/02/19 12:53:38;;;;;;;4.72;3.65;;;;;;;3.20;100.00;97917.47;4977606;28;19972;-62
2022/02/19 12:56:28;;;;;;;6.97;5.07;;;;;;;3.43;100.00;97919.59;4977654;28;20057;-58
2022/02/19 12:59:13;;;;;;;7.35;4.22;;;;;;;3.30;100.00;97895.44;4975362;28;20101;-58
2022/02/19 13:02:04;;;;;;;9.13;3.75;;;;;;;3.31;100.00;97902.41;4978274;28;20064;-56
2022/02/19 13:05:02;;;;;;;6.30;4.38;;;;;;;3.44;100.00;97896.00;4982527;28;20054;-64
2022/02/19 13:07:47;;;;;;;5.75;3.72;;;;;;;3.40;100.00;97896.97;4980110;28;20069;-56
2022/02/19 13:10:33;;;;;;;3.33;2.25;;;;;;;2.92;100.00;97869.19;4982162;28;20351;-61
2022/02/19 13:13:20;;;;;;;5.72;2.83;;;;;;;3.32;100.00;97884.94;4970391;28;20049;-59
2022/02/19 13:16:07;;;;;;;5.18;2.50;;;;;;;3.16;100.00;97873.03;4975099;28;20108;-59
2022/02/19 13:18:52;;;;;;;5.43;2.80;;;;;;;3.30;100.00;97873.63;4959883;28;20129;-62
2022/02/19 13:21:37;;;;;;;;;;;;;;;3.22;100.00;97875.56;4959217;28;20136;-65
2022/02/19 13:24:22;;;;;;;4.20;2.22;;;;;;;3.14;100.00;97878.34;4974965;28;19968;-60